Bei Facebook empfehlenBei Twitter postenGoogle plusPinterest

Das Wetter im Erzgebirge am 13.04.2016

Wetter und Klima am 13.04.2016 Holzhau im Erzgebirge (630m ü.NN)
Letzte gemessene Temperatur und Uhrzeit der Messung23:45:00 Uhr7.20 °C
Temperatur (Maximum / Höchstwert) und Uhrzeit der Messung12:30:00 Uhr17.60 °C
Temperatur (Minimum / Tiefstwert) und Uhrzeit der Messung03:00:004.30 °C
Errechneter Absolutwert der Temperaturschwankungen zwischen Tmin und Tmax des Tages13.30 K
Errechnete Tagesmitteltemperatur9.75208 °C
Gesamt - Niederschlag des Tages (in flüssiger Form)5.18 Liter / m²
Luftdruck (Maximum / Höchstwert) und Zeitpunkt der Messung00:00:00 Uhr1006.20 hPa
Luftdruck (Minimum / Tiefstwert) und Zeitpunkt der Messung18:30:00 Uhr1001.80 hPa
Errechneter Absolutwert der Luftdruckschwankungen des Tages4.40 hPa
Höchste gemessene Windgeschwindigkeit und Uhrzeit der Messung23:45:00 Uhr0.00 km/h
Errechnete Windhäufigkeit in Relation zu den Messwerten des Tages0.00000 %
Niedrigste Windkühle (Windchill) und Zeitpunkt der Messung03:00:00 Uhr4.30 °C
Taupunkt (Maximum / Höchstwert) und Uhrzeit der Messung08:15:00 Uhr9.90 °C
Taupunkt (Minimum / Tiefstwert) und Uhrzeit der Messung00:45:002.90 °C
Anzahl der automatisch eingelesenen Messwerte 96

Detaillierte Wetter- und Klima- Messwerte für den 13.04.2016 in Holzhau im Erzgebirge (630m ü.NN)
ZeitTemperaturLuftdruckRel. LuftfeuchteWindWindrichtungWindchillTaupunktNiederschlag l/m²
23:45:007.20 °C1003.00 hPa92.00 %6.00 °C5.18
23:30:007.30 °C1003.20 hPa92.00 %6.10 °C4.66
23:15:007.40 °C1003.20 hPa92.00 %6.20 °C4.66
23:00:007.50 °C1003.10 hPa92.00 %6.30 °C4.66
22:45:007.50 °C1003.10 hPa91.00 %6.10 °C4.66
22:30:007.60 °C1002.90 hPa91.00 %6.20 °C4.66
22:15:007.60 °C1003.20 hPa91.00 %6.20 °C4.66
22:00:007.60 °C1003.10 hPa90.00 %6.10 °C4.66
21:45:007.80 °C1003.00 hPa91.00 %6.40 °C4.66
21:30:007.90 °C1003.10 hPa90.00 %6.40 °C4.66
21:15:007.90 °C1003.10 hPa89.00 %6.20 °C4.66
21:00:007.90 °C1002.90 hPa89.00 %6.20 °C4.66
20:45:007.90 °C1003.00 hPa88.00 %6.00 °C4.66
20:30:007.90 °C1003.20 hPa88.00 %6.00 °C4.15
20:15:007.90 °C1003.20 hPa88.00 %6.00 °C3.63
20:00:008.00 °C1003.00 hPa87.00 %6.00 °C2.07
19:45:008.10 °C1002.40 hPa86.00 %5.90 °C1.56
19:30:008.40 °C1002.20 hPa86.00 %6.20 °C1.56
19:15:008.40 °C1002.20 hPa85.00 %6.00 °C1.56
19:00:008.70 °C1002.20 hPa85.00 %6.30 °C1.56
18:45:008.90 °C1001.90 hPa84.00 %6.30 °C1.56
18:30:009.40 °C1001.80 hPa84.00 %6.80 °C1.56
18:15:009.90 °C1002.10 hPa83.00 %7.20 °C1.56
18:00:0010.40 °C1002.10 hPa83.00 %7.60 °C1.56
17:45:0010.80 °C1002.30 hPa82.00 %7.90 °C1.56
17:30:0011.30 °C1002.30 hPa81.00 %8.20 °C1.56
17:15:0011.60 °C1002.40 hPa80.00 %8.30 °C1.56
17:00:0011.80 °C1002.40 hPa80.00 %8.50 °C1.56
16:45:0011.60 °C1002.50 hPa80.00 %8.30 °C1.56
16:30:0011.80 °C1002.60 hPa79.00 %8.30 °C1.56
16:15:0012.20 °C1002.70 hPa80.00 %8.90 °C1.56
16:00:0011.80 °C1002.80 hPa81.00 %8.60 °C1.56
15:45:0011.30 °C1003.00 hPa81.00 %8.20 °C1.56
15:30:0010.40 °C1003.20 hPa79.00 %6.90 °C1.56
15:15:0010.30 °C1003.50 hPa77.00 %6.50 °C1.56
15:00:0011.40 °C1003.60 hPa72.00 %6.50 °C0.52
14:45:0013.70 °C1003.10 hPa65.00 %7.20 °C 
14:30:0014.40 °C1002.90 hPa62.00 %7.20 °C 
14:15:0015.30 °C1003.10 hPa60.00 %7.60 °C 
14:00:0015.80 °C1003.10 hPa61.00 %8.30 °C 
13:45:0015.90 °C1003.30 hPa61.00 %8.40 °C 
13:30:0015.50 °C1003.50 hPa60.00 %7.80 °C 
13:15:0015.90 °C1003.50 hPa57.00 %7.40 °C 
13:00:0016.70 °C1003.50 hPa55.00 %7.60 °C 
12:45:0016.90 °C1003.60 hPa54.00 %7.50 °C 
12:30:0017.60 °C1003.50 hPa54.00 %8.20 °C 
12:15:0017.50 °C1003.70 hPa56.00 %8.60 °C 
12:00:0016.60 °C1003.80 hPa59.00 %8.60 °C 
11:45:0016.50 °C1003.90 hPa59.00 %8.50 °C 
11:30:0016.80 °C1004.00 hPa61.00 %9.20 °C 
11:15:0016.30 °C1004.10 hPa62.00 %9.00 °C 
11:00:0016.40 °C1004.30 hPa62.00 %9.10 °C 
10:45:0016.20 °C1004.40 hPa65.00 %9.60 °C 
10:30:0015.50 °C1004.50 hPa64.00 %8.70 °C 
10:15:0015.30 °C1004.50 hPa67.00 %9.20 °C 
10:00:0014.90 °C1004.50 hPa69.00 %9.30 °C 
09:45:0014.50 °C1004.40 hPa71.00 %9.30 °C 
09:30:0013.80 °C1004.50 hPa74.00 %9.30 °C 
09:15:0013.30 °C1004.70 hPa76.00 %9.20 °C 
09:00:0013.00 °C1004.40 hPa79.00 %9.40 °C 
08:45:0012.40 °C1004.50 hPa83.00 %9.60 °C 
08:30:0012.10 °C1004.70 hPa85.00 %9.70 °C 
08:15:0011.80 °C1004.70 hPa88.00 %9.90 °C 
08:00:0011.10 °C1004.60 hPa91.00 %9.70 °C 
07:45:0010.30 °C1004.70 hPa92.00 %9.10 °C 
07:30:009.50 °C1004.70 hPa93.00 %8.40 °C 
07:15:008.80 °C1004.80 hPa93.00 %7.70 °C 
07:00:008.40 °C1004.90 hPa93.00 %7.30 °C 
06:45:007.30 °C1005.00 hPa93.00 %6.20 °C 
06:30:005.90 °C1005.10 hPa93.00 %4.90 °C 
06:15:005.40 °C1005.10 hPa93.00 %4.40 °C 
06:00:005.40 °C1005.20 hPa93.00 %4.40 °C 
05:45:005.50 °C1005.00 hPa93.00 %4.50 °C 
05:30:005.60 °C1005.00 hPa93.00 %4.60 °C 
05:15:005.80 °C1004.90 hPa93.00 %4.80 °C 
05:00:005.90 °C1004.90 hPa93.00 %4.90 °C 
04:45:005.90 °C1004.90 hPa92.00 %4.70 °C 
04:30:005.90 °C1004.70 hPa92.00 %4.70 °C 
04:15:005.80 °C1004.90 hPa92.00 %4.60 °C 
04:00:005.60 °C1004.80 hPa92.00 %4.40 °C 
03:45:005.30 °C1005.10 hPa92.00 %4.10 °C 
03:30:004.90 °C1005.30 hPa92.00 %3.70 °C 
03:15:004.50 °C1005.30 hPa92.00 %3.30 °C 
03:00:004.30 °C1005.40 hPa91.00 %3.00 °C 
02:45:004.40 °C1005.30 hPa91.00 %3.10 °C 
02:30:004.50 °C1005.40 hPa91.00 %3.20 °C 
02:15:005.00 °C1005.40 hPa91.00 %3.70 °C 
02:00:005.00 °C1005.60 hPa91.00 %3.70 °C 
01:45:004.80 °C1005.50 hPa91.00 %3.50 °C 
01:30:004.80 °C1005.70 hPa90.00 %3.30 °C 
01:15:004.80 °C1005.60 hPa90.00 %3.30 °C 
01:00:004.60 °C1005.60 hPa90.00 %3.10 °C 
00:45:004.40 °C1005.70 hPa90.00 %2.90 °C 
00:30:004.60 °C1006.00 hPa89.00 %2.90 °C 
00:15:005.00 °C1006.10 hPa89.00 %3.30 °C 
00:00:005.20 °C1006.20 hPa89.00 %3.50 °C 

Permanenter Link zu dieser Seite: Wetter im Erzgebirge am 13.04.2016
Performance-Info: Die Erstellung der Seite / Statistik(en) / Tabelle(n) erforderte 5 Datenbankserver-Abfrage(n) und dauerte 100 Millisekunden. (Dieser Messwert ist von der Gesamt-Auslastung des Servers abhängig.)
Erzgebirge - Wetter | Erzgebirge - Wetter (Mobilgeräte) | Komplette Klimadatenbank